Time;durP1;ratioP1;P1;durP2;ratioP2;P2;SDS_P1;SDS_P2;PMS_P1;PMS_P2;Temp;Humidity;BMP_temperature;BMP_pressure;BME280_temperature;BME280_humidity;BME280_pressure;Samples;Min_cycle;Max_cycle;Signal;HPM_P1;HPM_P2
2021/11/25 00:01:57;;;;;;;17.23;8.18;;;;;;;;;;5006890;28;20029;-72
2021/11/25 00:04:23;;;;;;;16.50;7.95;;;;;;;;;;5005876;28;20026;-71
2021/11/25 00:06:49;;;;;;;17.95;8.48;;;;;;;;;;5023038;28;20029;-71
2021/11/25 00:09:15;;;;;;;18.98;8.18;;;;;;;;;;5024035;28;20713;-71
2021/11/25 00:11:42;;;;;;;18.13;8.38;;;;;;;;;;5022909;28;20125;-71
2021/11/25 00:14:08;;;;;;;16.73;7.65;;;;;;;;;;5021946;28;20057;-72
2021/11/25 00:16:34;;;;;;;17.92;7.90;;;;;;;;;;5022120;28;20037;-72
2021/11/25 00:19:00;;;;;;;15.88;7.82;;;;;;;;;;5011631;28;20043;-72
2021/11/25 00:21:26;;;;;;;15.05;7.65;;;;;;;;;;5022669;28;20115;-72
2021/11/25 00:23:52;;;;;;;15.00;7.47;;;;;;;;;;5023383;28;20100;-72
2021/11/25 00:26:18;;;;;;;16.85;7.93;;;;;;;;;;5024814;28;20133;-72
2021/11/25 00:28:44;;;;;;;14.82;7.78;;;;;;;;;;5022132;28;20022;-72
2021/11/25 00:31:10;;;;;;;16.38;7.65;;;;;;;;;;5022631;28;20025;-72
2021/11/25 00:33:36;;;;;;;15.35;7.80;;;;;;;;;;5021604;28;20072;-72
2021/11/25 00:36:02;;;;;;;17.73;7.80;;;;;;;;;;5022323;28;20025;-71
2021/11/25 00:38:28;;;;;;;14.35;7.07;;;;;;;;;;5020605;28;20025;-72
2021/11/25 00:40:54;;;;;;;19.65;7.65;;;;;;;;;;5023030;28;20042;-72
2021/11/25 00:43:21;;;;;;;16.05;7.80;;;;;;;;;;5013439;28;20041;-72
2021/11/25 00:45:47;;;;;;;16.35;8.07;;;;;;;;;;5020825;28;20896;-72
2021/11/25 00:48:13;;;;;;;16.35;6.65;;;;;;;;;;5021795;28;20203;-72
2021/11/25 00:50:39;;;;;;;13.90;7.40;;;;;;;;;;5021504;28;20044;-72
2021/11/25 00:53:05;;;;;;;15.13;8.25;;;;;;;;;;5022120;28;20034;-72
2021/11/25 00:55:31;;;;;;;17.83;8.20;;;;;;;;;;5019678;28;20106;-72
2021/11/25 00:57:57;;;;;;;18.65;7.85;;;;;;;;;;5021807;28;20116;-72
2021/11/25 01:00:23;;;;;;;14.52;7.45;;;;;;;;;;5022064;28;20095;-72
2021/11/25 01:02:49;;;;;;;16.15;7.63;;;;;;;;;;5021574;28;20653;-72
2021/11/25 01:05:16;;;;;;;14.50;7.88;;;;;;;;;;5004427;28;20686;-72
2021/11/25 01:07:42;;;;;;;15.13;7.65;;;;;;;;;;5021071;28;20091;-72
2021/11/25 01:10:08;;;;;;;12.32;5.82;;;;;;;;;;5003539;28;20029;-72
2021/11/25 01:12:35;;;;;;;11.98;6.18;;;;;;;;;;4999995;28;20040;-72
2021/11/25 01:15:01;;;;;;;9.95;5.53;;;;;;;;;;5021598;28;20037;-71
2021/11/25 01:17:27;;;;;;;10.13;5.25;;;;;;;;;;5021400;28;20033;-71
2021/11/25 01:19:53;;;;;;;12.23;5.20;;;;;;;;;;5021301;28;20038;-72
2021/11/25 01:22:19;;;;;;;11.38;5.70;;;;;;;;;;5020224;28;20037;-65
2021/11/25 01:24:45;;;;;;;8.45;5.00;;;;;;;;;;5020839;28;20776;-65
2021/11/25 01:27:11;;;;;;;6.95;4.40;;;;;;;;;;5021687;28;20025;-65
2021/11/25 01:29:37;;;;;;;8.93;5.15;;;;;;;;;;5021434;28;20106;-65
2021/11/25 01:32:03;;;;;;;10.32;5.68;;;;;;;;;;5021190;28;20132;-65
2021/11/25 01:34:29;;;;;;;10.43;5.50;;;;;;;;;;5021582;28;20033;-65
2021/11/25 01:36:55;;;;;;;9.85;5.20;;;;;;;;;;5021446;28;20111;-65
2021/11/25 01:39:21;;;;;;;9.85;5.10;;;;;;;;;;5019178;28;20034;-65
2021/11/25 01:41:48;;;;;;;8.60;5.13;;;;;;;;;;5021103;28;20029;-65
2021/11/25 01:44:14;;;;;;;10.35;5.40;;;;;;;;;;5019475;28;20018;-65
2021/11/25 01:46:40;;;;;;;8.88;5.47;;;;;;;;;;5021735;28;20033;-65
2021/11/25 01:49:06;;;;;;;9.93;5.07;;;;;;;;;;5019838;28;20068;-65
2021/11/25 01:51:32;;;;;;;11.38;5.63;;;;;;;;;;5020370;28;20112;-66
2021/11/25 01:53:58;;;;;;;8.90;5.00;;;;;;;;;;5002725;28;20115;-65
2021/11/25 01:56:24;;;;;;;9.77;5.30;;;;;;;;;;5021444;28;20039;-65
2021/11/25 01:58:50;;;;;;;11.20;5.63;;;;;;;;;;5021137;28;20089;-65
2021/11/25 02:01:16;;;;;;;11.48;5.97;;;;;;;;;;5022568;28;20634;-65
2021/11/25 02:03:42;;;;;;;10.95;5.70;;;;;;;;;;5010517;28;20472;-65
2021/11/25 02:06:09;;;;;;;12.18;5.88;;;;;;;;;;5023810;28;20536;-65
2021/11/25 02:08:35;;;;;;;9.90;5.75;;;;;;;;;;5023495;28;20758;-65
2021/11/25 02:11:01;;;;;;;12.05;5.75;;;;;;;;;;5024175;28;20144;-65
2021/11/25 02:13:28;;;;;;;13.40;6.05;;;;;;;;;;5013675;28;20826;-65
2021/11/25 02:15:54;;;;;;;10.77;5.70;;;;;;;;;;5024968;28;20044;-66
2021/11/25 02:18:20;;;;;;;11.68;5.70;;;;;;;;;;5006824;28;20025;-65
2021/11/25 02:20:46;;;;;;;10.68;6.13;;;;;;;;;;5024916;28;20736;-66
2021/11/25 02:23:12;;;;;;;10.20;6.28;;;;;;;;;;5006635;28;20048;-65
2021/11/25 02:25:38;;;;;;;10.73;6.32;;;;;;;;;;5024483;28;20537;-65
2021/11/25 02:28:04;;;;;;;11.55;7.10;;;;;;;;;;5024705;28;20661;-65
2021/11/25 02:30:30;;;;;;;11.60;6.82;;;;;;;;;;5024921;28;20052;-65
2021/11/25 02:32:56;;;;;;;11.23;5.88;;;;;;;;;;5024004;28;20579;-65
2021/11/25 02:35:22;;;;;;;14.85;8.20;;;;;;;;;;5024747;28;20579;-65
2021/11/25 02:37:48;;;;;;;14.00;6.95;;;;;;;;;;5024349;28;20061;-65
2021/11/25 02:40:14;;;;;;;16.73;7.55;;;;;;;;;;5024211;28;20025;-65
2021/11/25 02:42:40;;;;;;;12.20;7.57;;;;;;;;;;5024670;28;20026;-65
2021/11/25 02:45:07;;;;;;;14.10;7.35;;;;;;;;;;5022904;28;20108;-65
2021/11/25 02:47:33;;;;;;;12.88;7.57;;;;;;;;;;5024061;28;20116;-65
2021/11/25 02:49:59;;;;;;;13.57;7.30;;;;;;;;;;5024232;28;20512;-65
2021/11/25 02:52:25;;;;;;;12.90;7.32;;;;;;;;;;5017551;28;20036;-65
2021/11/25 02:54:51;;;;;;;15.05;8.13;;;;;;;;;;5020578;28;20056;-65
2021/11/25 02:57:18;;;;;;;15.95;7.78;;;;;;;;;;5024664;28;20025;-65
2021/11/25 02:59:44;;;;;;;14.73;8.60;;;;;;;;;;5024307;28;20069;-65
2021/11/25 03:02:10;;;;;;;15.85;8.30;;;;;;;;;;5005708;28;20036;-65
2021/11/25 03:04:36;;;;;;;14.63;8.40;;;;;;;;;;5024173;28;20037;-66
2021/11/25 03:07:02;;;;;;;16.75;8.45;;;;;;;;;;5023925;28;20021;-65
2021/11/25 03:09:28;;;;;;;14.73;8.18;;;;;;;;;;5020620;28;20028;-65
2021/11/25 03:11:55;;;;;;;16.40;9.40;;;;;;;;;;5023638;28;20060;-66
2021/11/25 03:14:21;;;;;;;18.25;9.32;;;;;;;;;;5003346;28;20030;-65
2021/11/25 03:16:47;;;;;;;16.23;8.98;;;;;;;;;;5023343;28;20033;-65
2021/11/25 03:19:14;;;;;;;15.18;9.02;;;;;;;;;;5024054;28;20094;-65
2021/11/25 03:21:40;;;;;;;16.35;9.32;;;;;;;;;;5020634;28;20380;-65
2021/11/25 03:24:06;;;;;;;18.17;9.77;;;;;;;;;;5021213;28;20091;-65
2021/11/25 03:26:32;;;;;;;16.67;9.40;;;;;;;;;;5024086;28;20516;-65
2021/11/25 03:28:59;;;;;;;18.23;9.98;;;;;;;;;;5023672;28;20021;-66
2021/11/25 03:31:26;;;;;;;21.55;11.07;;;;;;;;;;5005353;28;20490;-66
2021/11/25 03:33:52;;;;;;;18.35;10.75;;;;;;;;;;5023069;28;20034;-65
2021/11/25 03:36:18;;;;;;;19.52;10.90;;;;;;;;;;5020169;28;20121;-65
2021/11/25 03:38:44;;;;;;;23.50;12.25;;;;;;;;;;5023369;28;20033;-65
2021/11/25 03:41:10;;;;;;;21.10;11.63;;;;;;;;;;5023342;28;20575;-65
2021/11/25 03:43:36;;;;;;;19.45;11.20;;;;;;;;;;5005511;28;20113;-65
2021/11/25 03:46:02;;;;;;;22.20;11.52;;;;;;;;;;5023094;28;20028;-65
2021/11/25 03:48:29;;;;;;;19.27;11.38;;;;;;;;;;5023723;28;20030;-65
2021/11/25 03:50:55;;;;;;;19.95;11.52;;;;;;;;;;5023205;28;20065;-65
2021/11/25 03:53:21;;;;;;;23.15;12.77;;;;;;;;;;5022944;28;20532;-66
2021/11/25 03:55:47;;;;;;;23.27;11.88;;;;;;;;;;5023187;28;20033;-65
2021/11/25 03:58:13;;;;;;;24.83;12.77;;;;;;;;;;5023204;28;20048;-65
2021/11/25 04:00:39;;;;;;;21.27;12.10;;;;;;;;;;5022821;28;20071;-66
2021/11/25 04:03:05;;;;;;;24.73;11.88;;;;;;;;;;5022654;28;20548;-65
2021/11/25 04:05:31;;;;;;;23.75;12.55;;;;;;;;;;5023357;28;20033;-66
2021/11/25 04:07:57;;;;;;;21.95;12.10;;;;;;;;;;5022488;28;20060;-65
2021/11/25 04:10:23;;;;;;;22.48;12.90;;;;;;;;;;5002580;28;20034;-65
2021/11/25 04:12:50;;;;;;;22.35;12.18;;;;;;;;;;5022614;28;20064;-65
2021/11/25 04:15:16;;;;;;;25.60;12.50;;;;;;;;;;5001080;28;20033;-66
2021/11/25 04:17:42;;;;;;;22.52;13.02;;;;;;;;;;5022737;28;20033;-65
2021/11/25 04:20:08;;;;;;;23.80;13.40;;;;;;;;;;5022516;28;20029;-65
2021/11/25 04:22:34;;;;;;;23.88;13.70;;;;;;;;;;5021832;28;20030;-66
2021/11/25 04:25:00;;;;;;;46.30;14.60;;;;;;;;;;5021859;28;20034;-66
2021/11/25 04:27:26;;;;;;;25.77;13.45;;;;;;;;;;5017002;28;20069;-65
2021/11/25 04:30:07;;;;;;;25.95;14.05;;;;;;;;;;5022292;28;20104;-65
2021/11/25 04:35:31;;;;;;;25.10;13.55;;;;;;;;;;5019006;28;20757;-65
2021/11/25 04:37:57;;;;;;;34.72;14.95;;;;;;;;;;5021076;28;20033;-65
2021/11/25 04:40:24;;;;;;;26.85;13.48;;;;;;;;;;5022610;28;20103;-65
2021/11/25 04:42:50;;;;;;;28.08;14.40;;;;;;;;;;5022018;28;20120;-65
2021/11/25 04:45:16;;;;;;;25.60;14.10;;;;;;;;;;5004415;28;20033;-65
2021/11/25 04:47:42;;;;;;;28.55;14.80;;;;;;;;;;5021890;28;20045;-65
2021/11/25 04:50:08;;;;;;;28.17;14.95;;;;;;;;;;5022591;28;20021;-65
2021/11/25 04:52:34;;;;;;;26.50;13.85;;;;;;;;;;5021775;28;20780;-65
2021/11/25 04:55:01;;;;;;;28.23;13.45;;;;;;;;;;5024971;28;20815;-65
2021/11/25 04:57:27;;;;;;;28.92;15.82;;;;;;;;;;5022742;28;20029;-65
2021/11/25 04:59:53;;;;;;;29.52;14.45;;;;;;;;;;5021733;28;20041;-65
2021/11/25 05:02:19;;;;;;;27.10;14.20;;;;;;;;;;5022036;28;20029;-65
2021/11/25 05:04:45;;;;;;;29.20;15.25;;;;;;;;;;5002997;28;20030;-65
2021/11/25 05:07:11;;;;;;;28.73;15.43;;;;;;;;;;5021813;28;20080;-65
2021/11/25 05:09:37;;;;;;;33.28;16.00;;;;;;;;;;5021309;28;20866;-65
2021/11/25 05:12:03;;;;;;;28.63;14.60;;;;;;;;;;5010148;28;20075;-65
2021/11/25 05:14:29;;;;;;;28.75;15.50;;;;;;;;;;5020976;28;20146;-65
2021/11/25 05:16:55;;;;;;;32.15;15.93;;;;;;;;;;5022163;28;20025;-65
2021/11/25 05:19:21;;;;;;;30.38;14.98;;;;;;;;;;5019746;28;20136;-71
2021/11/25 05:21:48;;;;;;;31.98;15.50;;;;;;;;;;5021197;28;20039;-71
2021/11/25 05:24:17;;;;;;;34.28;16.27;;;;;;;;;;5018638;28;20026;-71
2021/11/25 05:26:43;;;;;;;30.10;15.40;;;;;;;;;;5021608;28;20034;-72
2021/11/25 05:29:09;;;;;;;30.45;15.60;;;;;;;;;;5024537;28;20029;-72
2021/11/25 05:31:35;;;;;;;30.85;15.73;;;;;;;;;;5021727;28;20033;-72
2021/11/25 05:34:01;;;;;;;33.65;16.38;;;;;;;;;;5021887;28;20106;-72
2021/11/25 05:36:28;;;;;;;30.20;16.27;;;;;;;;;;5001772;28;20021;-72
2021/11/25 05:38:54;;;;;;;31.55;16.50;;;;;;;;;;5003705;28;20120;-72
2021/11/25 05:41:20;;;;;;;31.40;15.82;;;;;;;;;;5008009;28;20084;-72
2021/11/25 05:43:46;;;;;;;34.30;17.90;;;;;;;;;;5011052;28;20095;-72
2021/11/25 05:46:12;;;;;;;29.42;15.70;;;;;;;;;;5021995;28;20603;-72
2021/11/25 05:48:38;;;;;;;33.00;16.67;;;;;;;;;;4999803;28;20034;-72
2021/11/25 05:51:04;;;;;;;31.92;16.35;;;;;;;;;;5024699;28;20032;-72
2021/11/25 05:53:30;;;;;;;32.15;16.15;;;;;;;;;;5024466;28;20037;-70
2021/11/25 05:55:56;;;;;;;32.50;16.23;;;;;;;;;;5025422;28;20044;-71
2021/11/25 05:58:22;;;;;;;30.85;16.27;;;;;;;;;;5007440;28;20029;-71
2021/11/25 06:00:49;;;;;;;29.88;15.90;;;;;;;;;;5007996;28;20519;-71
2021/11/25 06:03:15;;;;;;;30.25;16.08;;;;;;;;;;5025256;28;20033;-71
2021/11/25 06:05:41;;;;;;;33.05;17.73;;;;;;;;;;5023348;28;20761;-65
2021/11/25 06:08:07;;;;;;;28.58;15.48;;;;;;;;;;5023952;28;20511;-65
2021/11/25 06:10:33;;;;;;;30.92;15.95;;;;;;;;;;5008236;28;20080;-65
2021/11/25 06:12:59;;;;;;;32.60;16.27;;;;;;;;;;5022364;28;20123;-65
2021/11/25 06:15:25;;;;;;;29.95;16.70;;;;;;;;;;5023415;28;20072;-65
2021/11/25 06:17:51;;;;;;;31.38;16.63;;;;;;;;;;5024864;28;20071;-65
2021/11/25 06:20:17;;;;;;;30.05;15.43;;;;;;;;;;5024707;28;20044;-65
2021/11/25 06:22:44;;;;;;;40.60;17.33;;;;;;;;;;5024229;28;20036;-65
2021/11/25 06:25:10;;;;;;;33.58;17.02;;;;;;;;;;5024838;28;20032;-65
2021/11/25 06:27:36;;;;;;;30.33;15.55;;;;;;;;;;5022349;28;20057;-65
2021/11/25 06:30:02;;;;;;;31.90;16.63;;;;;;;;;;5024544;28;20025;-65
2021/11/25 06:32:28;;;;;;;30.70;16.27;;;;;;;;;;5021158;28;20036;-65
2021/11/25 06:34:54;;;;;;;30.65;17.05;;;;;;;;;;5005390;28;20087;-65
2021/11/25 06:37:20;;;;;;;30.23;16.15;;;;;;;;;;5019805;28;20030;-65
2021/11/25 06:39:46;;;;;;;31.05;16.50;;;;;;;;;;5022756;28;20033;-65
2021/11/25 06:42:12;;;;;;;33.60;16.60;;;;;;;;;;4998899;28;20042;-65
2021/11/25 06:44:38;;;;;;;31.10;17.30;;;;;;;;;;5022716;28;20033;-65
2021/11/25 06:47:04;;;;;;;31.80;16.58;;;;;;;;;;5024067;28;20021;-65
2021/11/25 06:49:30;;;;;;;38.38;17.15;;;;;;;;;;5018607;28;20488;-65
2021/11/25 06:51:56;;;;;;;64.68;22.63;;;;;;;;;;5023039;28;20044;-65
2021/11/25 06:54:22;;;;;;;50.30;20.08;;;;;;;;;;5001127;28;20026;-65
2021/11/25 06:56:48;;;;;;;38.40;17.98;;;;;;;;;;5023928;28;20033;-65
2021/11/25 06:59:15;;;;;;;33.30;17.20;;;;;;;;;;5018794;28;20037;-65
2021/11/25 07:01:41;;;;;;;32.70;16.27;;;;;;;;;;5021710;28;20787;-65
2021/11/25 07:04:07;;;;;;;31.13;17.15;;;;;;;;;;5023575;28;20064;-65
2021/11/25 07:06:34;;;;;;;34.00;17.60;;;;;;;;;;5023133;28;20065;-65
2021/11/25 07:09:00;;;;;;;31.73;16.42;;;;;;;;;;5021237;28;20048;-65
2021/11/25 07:11:26;;;;;;;31.17;15.98;;;;;;;;;;5023041;28;20032;-65
2021/11/25 07:13:52;;;;;;;32.47;16.77;;;;;;;;;;5015570;28;20133;-66
2021/11/25 07:16:18;;;;;;;30.60;16.50;;;;;;;;;;5020226;28;20037;-66
2021/11/25 07:18:44;;;;;;;30.83;16.30;;;;;;;;;;5021319;28;20029;-69
2021/11/25 07:21:10;;;;;;;37.95;19.20;;;;;;;;;;5022853;28;20033;-72
2021/11/25 07:23:36;;;;;;;48.90;22.90;;;;;;;;;;5023339;28;20122;-71
2021/11/25 07:26:07;;;;;;;45.42;18.45;;;;;;;;;;5023874;28;20159;-71
2021/11/25 07:28:33;;;;;;;36.53;18.25;;;;;;;;;;5017879;28;20048;-71
2021/11/25 07:30:59;;;;;;;43.20;23.05;;;;;;;;;;5023254;28;20036;-71
2021/11/25 07:33:25;;;;;;;47.17;23.45;;;;;;;;;;5004525;28;20040;-71
2021/11/25 07:35:51;;;;;;;47.33;23.95;;;;;;;;;;5002022;28;20036;-71
2021/11/25 07:38:17;;;;;;;36.25;19.20;;;;;;;;;;5005789;28;20124;-71
2021/11/25 07:40:48;;;;;;;32.00;16.52;;;;;;;;;;5022666;28;20064;-72
2021/11/25 07:43:14;;;;;;;35.63;16.95;;;;;;;;;;5020131;28;20044;-72
2021/11/25 07:45:40;;;;;;;35.45;17.88;;;;;;;;;;5021508;28;20132;-72
2021/11/25 07:48:06;;;;;;;33.63;16.85;;;;;;;;;;5022467;28;20886;-72
2021/11/25 07:50:32;;;;;;;29.80;16.33;;;;;;;;;;5022596;28;20021;-72
2021/11/25 07:52:58;;;;;;;37.88;17.95;;;;;;;;;;5022686;28;20037;-72
2021/11/25 07:55:25;;;;;;;43.03;18.63;;;;;;;;;;5023249;28;20068;-73
2021/11/25 07:57:51;;;;;;;57.67;23.02;;;;;;;;;;5019792;28;20556;-72
2021/11/25 08:00:17;;;;;;;48.35;21.92;;;;;;;;;;5023143;28;20029;-72
2021/11/25 08:02:43;;;;;;;63.78;27.08;;;;;;;;;;5011077;28;20092;-72
2021/11/25 08:05:09;;;;;;;43.33;20.40;;;;;;;;;;5019260;28;20026;-72
2021/11/25 08:07:37;;;;;;;46.47;22.02;;;;;;;;;;5016751;28;20678;-73
2021/11/25 08:10:03;;;;;;;70.85;29.35;;;;;;;;;;5022397;28;20577;-72
2021/11/25 08:12:29;;;;;;;71.18;33.38;;;;;;;;;;5013110;28;20778;-72
2021/11/25 08:14:55;;;;;;;54.67;27.58;;;;;;;;;;5021337;28;20040;-71
2021/11/25 08:17:21;;;;;;;40.70;21.75;;;;;;;;;;5009812;28;20425;-72
2021/11/25 08:19:47;;;;;;;41.90;17.77;;;;;;;;;;5021058;28;20037;-72
2021/11/25 08:22:14;;;;;;;34.60;17.95;;;;;;;;;;5022982;28;20063;-72
2021/11/25 08:24:40;;;;;;;37.45;18.08;;;;;;;;;;5018910;28;20044;-72
2021/11/25 08:27:06;;;;;;;36.25;19.35;;;;;;;;;;5018593;28;20017;-72
2021/11/25 08:29:32;;;;;;;48.05;23.55;;;;;;;;;;5016148;28;20025;-72
2021/11/25 08:31:58;;;;;;;35.65;18.13;;;;;;;;;;5022197;28;20030;-72
2021/11/25 08:34:26;;;;;;;39.40;19.55;;;;;;;;;;5021739;28;20035;-72
2021/11/25 08:36:52;;;;;;;34.90;17.75;;;;;;;;;;5018568;28;20046;-72
2021/11/25 08:39:18;;;;;;;33.78;17.35;;;;;;;;;;5021403;28;20039;-72
2021/11/25 08:41:44;;;;;;;34.70;18.17;;;;;;;;;;4985493;28;20038;-72
2021/11/25 08:44:10;;;;;;;35.85;17.90;;;;;;;;;;5021988;28;20762;-70
2021/11/25 08:46:36;;;;;;;36.70;17.65;;;;;;;;;;5019284;28;20018;-71
2021/11/25 08:49:02;;;;;;;36.22;18.10;;;;;;;;;;5001416;28;20038;-71
2021/11/25 08:51:28;;;;;;;35.80;17.77;;;;;;;;;;5022049;28;20048;-69
2021/11/25 08:53:55;;;;;;;39.47;19.13;;;;;;;;;;5015096;28;20790;-69
2021/11/25 08:56:21;;;;;;;40.03;18.30;;;;;;;;;;5021833;28;20116;-69
2021/11/25 08:58:49;;;;;;;41.38;19.55;;;;;;;;;;5022203;28;20056;-69
2021/11/25 09:01:15;;;;;;;40.88;19.40;;;;;;;;;;5022239;28;20068;-69
2021/11/25 09:03:41;;;;;;;37.72;18.27;;;;;;;;;;5021115;28;20037;-69
2021/11/25 09:06:07;;;;;;;36.67;17.92;;;;;;;;;;5019536;28;20033;-69
2021/11/25 09:08:34;;;;;;;33.55;16.90;;;;;;;;;;5017960;28;20510;-70
2021/11/25 09:11:02;;;;;;;34.25;17.42;;;;;;;;;;5000312;28;20425;-69
2021/11/25 09:13:28;;;;;;;38.42;18.60;;;;;;;;;;5021344;28;20568;-70
2021/11/25 09:15:54;;;;;;;38.78;19.10;;;;;;;;;;5015926;28;20117;-68
2021/11/25 09:18:20;;;;;;;36.28;18.52;;;;;;;;;;5015970;28;20044;-69
2021/11/25 09:20:46;;;;;;;38.00;18.73;;;;;;;;;;5017359;28;20042;-69
2021/11/25 09:23:13;;;;;;;40.20;19.33;;;;;;;;;;5000743;28;20126;-69
2021/11/25 09:25:43;;;;;;;36.30;19.08;;;;;;;;;;5021376;28;20030;-68
2021/11/25 09:28:09;;;;;;;37.08;19.20;;;;;;;;;;5019808;28;20025;-69
2021/11/25 09:30:35;;;;;;;47.88;21.92;;;;;;;;;;5002385;28;20053;-70
2021/11/25 09:33:01;;;;;;;36.22;18.58;;;;;;;;;;5020361;28;20085;-69
2021/11/25 09:35:27;;;;;;;40.58;20.38;;;;;;;;;;5020240;28;20044;-69
2021/11/25 09:37:53;;;;;;;44.60;18.92;;;;;;;;;;5001844;28;20053;-69
2021/11/25 09:40:27;;;;;;;39.42;18.95;;;;;;;;;;5021342;28;20034;-69
2021/11/25 09:42:53;;;;;;;35.55;18.83;;;;;;;;;;5016250;28;20110;-69
2021/11/25 09:45:22;;;;;;;36.40;18.42;;;;;;;;;;5021168;28;20037;-69
2021/11/25 09:47:48;;;;;;;39.58;19.15;;;;;;;;;;5020243;28;20541;-69
2021/11/25 09:50:14;;;;;;;37.53;19.15;;;;;;;;;;5021193;28;20048;-69
2021/11/25 09:52:41;;;;;;;37.25;18.67;;;;;;;;;;5016028;28;20818;-69
2021/11/25 09:55:07;;;;;;;39.17;20.05;;;;;;;;;;5016989;28;20045;-68
2021/11/25 09:57:33;;;;;;;36.60;18.75;;;;;;;;;;5021010;28;20029;-69
2021/11/25 09:59:59;;;;;;;42.25;18.67;;;;;;;;;;5018796;28;20037;-70
2021/11/25 10:02:25;;;;;;;39.13;19.25;;;;;;;;;;5018727;28;20038;-70
2021/11/25 10:04:51;;;;;;;39.40;19.75;;;;;;;;;;5020595;28;20808;-69
2021/11/25 10:07:17;;;;;;;40.85;19.65;;;;;;;;;;5020001;28;20432;-70
2021/11/25 10:09:43;;;;;;;42.80;20.02;;;;;;;;;;5023113;28;20083;-69
2021/11/25 10:12:09;;;;;;;40.40;19.95;;;;;;;;;;5020441;28;20029;-69
2021/11/25 10:14:36;;;;;;;43.80;20.98;;;;;;;;;;5020419;28;20111;-69
2021/11/25 10:17:02;;;;;;;41.20;19.30;;;;;;;;;;5020602;28;20107;-69
2021/11/25 10:19:29;;;;;;;42.85;20.35;;;;;;;;;;5020040;28;20029;-69
2021/11/25 10:21:56;;;;;;;41.22;19.95;;;;;;;;;;5024281;28;20037;-69
2021/11/25 10:24:22;;;;;;;40.08;19.02;;;;;;;;;;5008422;28;20029;-69
2021/11/25 10:26:48;;;;;;;45.50;19.40;;;;;;;;;;5019040;28;20037;-69
2021/11/25 10:29:14;;;;;;;44.95;20.15;;;;;;;;;;5028364;28;20124;-70
2021/11/25 10:31:40;;;;;;;36.03;19.13;;;;;;;;;;5028653;28;20064;-69
2021/11/25 10:34:14;;;;;;;45.30;21.50;;;;;;;;;;5027701;28;20041;-69
2021/11/25 10:41:50;;;;;;;46.70;21.08;;;;;;;;;;5024687;28;20033;-70
2021/11/25 10:44:17;;;;;;;58.78;24.80;;;;;;;;;;5025222;28;20842;-69
2021/11/25 10:46:43;;;;;;;42.53;20.45;;;;;;;;;;5024426;28;20061;-68
2021/11/25 10:49:11;;;;;;;40.08;20.38;;;;;;;;;;5006780;28;20027;-68
2021/11/25 10:51:37;;;;;;;65.95;28.75;;;;;;;;;;5024885;28;20030;-70
2021/11/25 10:54:03;;;;;;;40.85;19.85;;;;;;;;;;5025049;28;20041;-69
2021/11/25 10:56:29;;;;;;;51.70;21.65;;;;;;;;;;5024500;28;20059;-69
2021/11/25 10:58:56;;;;;;;36.58;18.45;;;;;;;;;;5024906;28;20091;-70
2021/11/25 11:01:22;;;;;;;37.63;18.55;;;;;;;;;;5024857;28;20029;-70
2021/11/25 11:03:48;;;;;;;39.35;18.90;;;;;;;;;;5023765;28;20120;-70
2021/11/25 11:06:14;;;;;;;43.30;20.10;;;;;;;;;;5025032;28;20069;-70
2021/11/25 11:08:40;;;;;;;46.95;20.67;;;;;;;;;;5024566;28;20130;-70
2021/11/25 11:11:06;;;;;;;41.03;20.05;;;;;;;;;;5023870;28;20025;-70
2021/11/25 11:14:10;;;;;;;41.58;19.63;;;;;;;;;;5023937;28;20036;-70
2021/11/25 11:16:42;;;;;;;43.65;19.40;;;;;;;;;;5021497;28;20591;-70
2021/11/25 11:19:08;;;;;;;40.47;19.80;;;;;;;;;;5023025;28;20037;-70
2021/11/25 11:21:34;;;;;;;38.50;18.52;;;;;;;;;;5024508;28;20476;-70
2021/11/25 11:24:00;;;;;;;41.28;20.45;;;;;;;;;;5023528;28;20265;-70
2021/11/25 11:26:26;;;;;;;40.33;19.85;;;;;;;;;;5027070;28;20035;-70
2021/11/25 11:28:52;;;;;;;48.70;24.27;;;;;;;;;;5006535;28;20040;-70
2021/11/25 11:31:18;;;;;;;41.03;20.33;;;;;;;;;;5024017;28;20388;-70
2021/11/25 11:33:44;;;;;;;44.70;22.02;;;;;;;;;;5023980;28;20588;-68
2021/11/25 11:36:10;;;;;;;37.78;19.85;;;;;;;;;;5023942;28;20504;-70
2021/11/25 11:38:37;;;;;;;43.83;20.67;;;;;;;;;;5024455;28;20114;-72
2021/11/25 11:41:03;;;;;;;47.05;20.70;;;;;;;;;;5026104;28;20826;-68
2021/11/25 11:43:29;;;;;;;49.05;22.60;;;;;;;;;;5024161;28;20032;-69
2021/11/25 11:45:55;;;;;;;53.10;23.02;;;;;;;;;;5024441;28;20131;-71
2021/11/25 11:48:21;;;;;;;39.15;19.40;;;;;;;;;;5023654;28;20030;-69
2021/11/25 11:50:51;;;;;;;45.05;21.67;;;;;;;;;;5024152;28;20809;-70
2021/11/25 11:53:18;;;;;;;48.20;20.92;;;;;;;;;;5023694;28;20035;-68
2021/11/25 11:55:44;;;;;;;45.88;22.15;;;;;;;;;;5023587;28;20481;-70
2021/11/25 11:58:10;;;;;;;49.80;23.20;;;;;;;;;;5023740;28;20025;-72
2021/11/25 12:00:37;;;;;;;38.63;19.77;;;;;;;;;;5024000;28;20558;-68
2021/11/25 12:03:03;;;;;;;36.65;18.63;;;;;;;;;;5023125;28;20141;-71
2021/11/25 12:05:29;;;;;;;43.72;20.73;;;;;;;;;;5024016;28;20022;-68
2021/11/25 12:07:55;;;;;;;66.70;31.00;;;;;;;;;;5015210;28;20169;-70
2021/11/25 12:10:21;;;;;;;49.72;26.25;;;;;;;;;;5023114;28;20760;-69
2021/11/25 12:12:47;;;;;;;60.25;29.00;;;;;;;;;;5023818;28;20858;-69
2021/11/25 12:15:13;;;;;;;88.22;36.60;;;;;;;;;;5024993;28;20476;-68
2021/11/25 12:17:40;;;;;;;71.85;32.92;;;;;;;;;;5023284;28;20038;-69
2021/11/25 12:20:06;;;;;;;84.57;34.50;;;;;;;;;;5021168;28;20037;-68
2021/11/25 12:22:32;;;;;;;82.93;34.20;;;;;;;;;;5023611;28;20048;-70
2021/11/25 12:25:01;;;;;;;60.58;26.77;;;;;;;;;;5004540;28;20033;-68
2021/11/25 12:27:29;;;;;;;66.38;28.33;;;;;;;;;;5023326;28;20571;-68
2021/11/25 12:29:57;;;;;;;38.85;19.13;;;;;;;;;;5014923;28;20033;-69
2021/11/25 12:32:27;;;;;;;48.88;23.75;;;;;;;;;;5020943;28;20497;-70
2021/11/25 12:34:53;;;;;;;51.63;22.85;;;;;;;;;;5004981;28;20037;-68
2021/11/25 12:37:19;;;;;;;55.55;23.95;;;;;;;;;;5025995;28;20028;-70
2021/11/25 12:39:45;;;;;;;53.63;24.38;;;;;;;;;;5022868;28;20049;-69
2021/11/25 12:42:11;;;;;;;49.33;22.10;;;;;;;;;;5022604;28;20053;-71
2021/11/25 12:44:37;;;;;;;43.17;21.77;;;;;;;;;;5023121;28;20037;-67
2021/11/25 12:47:03;;;;;;;49.00;22.60;;;;;;;;;;5022222;28;20116;-67
2021/11/25 12:49:29;;;;;;;55.20;21.75;;;;;;;;;;5022925;28;20053;-67
2021/11/25 12:51:55;;;;;;;57.55;24.63;;;;;;;;;;5021609;28;20026;-68
2021/11/25 12:54:22;;;;;;;46.60;23.05;;;;;;;;;;5021922;28;20667;-67
2021/11/25 12:56:48;;;;;;;81.13;30.17;;;;;;;;;;5022781;28;20030;-67
2021/11/25 12:59:14;;;;;;;54.25;24.13;;;;;;;;;;5022642;28;20043;-68
2021/11/25 13:01:40;;;;;;;58.50;27.80;;;;;;;;;;5004691;28;20028;-68
2021/11/25 13:04:08;;;;;;;67.95;26.92;;;;;;;;;;5012868;28;20662;-69
2021/11/25 13:06:34;;;;;;;60.47;26.73;;;;;;;;;;5004935;28;20029;-67
2021/11/25 13:09:01;;;;;;;60.67;27.17;;;;;;;;;;5022447;28;20029;-68
2021/11/25 13:11:28;;;;;;;57.90;26.30;;;;;;;;;;5022033;28;20026;-67
2021/11/25 13:13:54;;;;;;;53.58;21.90;;;;;;;;;;5022396;28;20123;-67
2021/11/25 13:16:20;;;;;;;58.00;24.30;;;;;;;;;;5004399;28;20025;-68
2021/11/25 13:18:51;;;;;;;49.33;22.15;;;;;;;;;;5022783;28;20036;-67
2021/11/25 13:21:17;;;;;;;59.03;22.95;;;;;;;;;;5022272;28;20184;-69
2021/11/25 13:23:43;;;;;;;48.40;21.67;;;;;;;;;;5021835;28;20033;-68
2021/11/25 13:26:09;;;;;;;65.93;24.73;;;;;;;;;;5022566;28;20484;-68
2021/11/25 13:28:36;;;;;;;47.97;23.15;;;;;;;;;;5022294;28;20041;-69
2021/11/25 13:31:02;;;;;;;55.33;23.50;;;;;;;;;;5022214;28;20021;-69
2021/11/25 13:33:31;;;;;;;79.53;27.05;;;;;;;;;;5022243;28;20056;-68
2021/11/25 13:35:57;;;;;;;44.40;20.25;;;;;;;;;;5020077;28;20041;-69
2021/11/25 13:38:23;;;;;;;70.25;25.45;;;;;;;;;;5021693;28;20084;-70
2021/11/25 13:40:49;;;;;;;51.35;21.63;;;;;;;;;;5022376;28;20488;-68
2021/11/25 13:43:15;;;;;;;44.38;21.20;;;;;;;;;;5022202;28;20112;-69
2021/11/25 13:45:42;;;;;;;30.92;16.48;;;;;;;;;;5021652;28;20140;-69
2021/11/25 13:48:08;;;;;;;52.83;22.08;;;;;;;;;;5022292;28;20480;-68
2021/11/25 13:50:37;;;;;;;58.80;22.27;;;;;;;;;;5021948;28;20048;-68
2021/11/25 13:53:05;;;;;;;49.78;21.25;;;;;;;;;;5021682;28;20041;-67
2021/11/25 13:55:31;;;;;;;38.50;18.02;;;;;;;;;;5027612;28;20132;-68
2021/11/25 13:57:58;;;;;;;34.83;18.45;;;;;;;;;;5023520;28;20572;-68
2021/11/25 14:00:24;;;;;;;33.92;17.80;;;;;;;;;;5025717;28;20061;-68
2021/11/25 14:02:50;;;;;;;42.80;21.52;;;;;;;;;;5026053;28;20719;-68
2021/11/25 14:05:17;;;;;;;44.17;20.45;;;;;;;;;;5026017;28;20025;-68
2021/11/25 14:07:43;;;;;;;40.05;20.90;;;;;;;;;;5025415;28;20033;-68
2021/11/25 14:10:09;;;;;;;47.38;21.55;;;;;;;;;;5026061;28;20477;-68
2021/11/25 14:12:35;;;;;;;48.25;20.85;;;;;;;;;;5025757;28;20926;-68
2021/11/25 14:15:01;;;;;;;38.63;20.10;;;;;;;;;;5025336;28;20084;-68
2021/11/25 14:17:27;;;;;;;36.15;19.80;;;;;;;;;;5025675;28;20060;-68
2021/11/25 14:19:53;;;;;;;42.88;21.13;;;;;;;;;;5025940;28;20037;-68
2021/11/25 14:22:19;;;;;;;45.63;20.35;;;4.80;99.90;;;;;;5025359;28;20137;-68
2021/11/25 14:24:45;;;;;;;41.10;20.02;;;;;;;;;;5004369;28;20030;-68